Clarkston, Washington
Current Conditions -  °F | °C
As of 7:56 PM on Wednesday 22 Oct 2014 (Local Time) from KLWS Reporting Station
Overcast Overcast  
Wind Chill: 19°   Ceiling: 9000
Heat Index: 19°   Visibility: 10mi
Dew Point:   Wind: 6mph
Humidity: 30%   Direction: 190°S
Pressure: 29.8"   Gusts: NA
Location:  46.41°N, 117.04°W
Report Text: KLWS 230256Z 19005KT 10SM OVC090 19/01 A2980 RMK AO2 SLP090 T01890011 53003
Loading
Personal Weather Stations






























Interactive Weather Map
Tropical Storm Tracking
New forecast layout! Learn more

10-Day Weather Forecast

Advertisements
Track Severe Weather on mobile